Time;durP1;ratioP1;P1;durP2;ratioP2;P2;SDS_P1;SDS_P2;PMS_P1;PMS_P2;Temp;Humidity;BMP_temperature;BMP_pressure;BME280_temperature;BME280_humidity;BME280_pressure;Samples;Min_cycle;Max_cycle;Signal;HPM_P1;HPM_P2
2022/06/17 00:00:24;;;;;;;5.60;5.10;;;18.70;99.90;;;;;;5091361;28;20501;-47
2022/06/17 00:02:51;;;;;;;5.47;4.93;;;18.60;99.90;;;;;;5091543;28;20532;-47
2022/06/17 00:05:18;;;;;;;5.70;5.20;;;18.60;99.90;;;;;;5091094;28;21109;-47
2022/06/17 00:07:47;;;;;;;7.30;5.20;;;18.50;99.90;;;;;;5091156;28;21009;-49
2022/06/17 00:10:20;;;;;;;5.10;4.70;;;18.50;99.90;;;;;;5091374;28;20439;-47
2022/06/17 00:12:47;;;;;;;5.10;4.60;;;18.50;99.90;;;;;;5091367;28;20443;-50
2022/06/17 00:15:14;;;;;;;5.80;5.30;;;18.50;99.90;;;;;;5091510;28;20846;-47
2022/06/17 00:17:44;;;;;;;6.63;4.60;;;18.40;99.90;;;;;;5091068;28;20484;-52
2022/06/17 00:20:14;;;;;;;5.53;4.63;;;18.40;99.90;;;;;;5090721;28;20827;-47
2022/06/17 00:22:44;;;;;;;5.70;5.07;;;18.50;99.90;;;;;;5091381;28;20460;-47
2022/06/17 00:25:34;;;;;;;8.07;4.77;;;18.40;99.90;;;;;;5091129;28;20464;-47
2022/06/17 00:28:02;;;;;;;5.40;4.90;;;18.50;99.90;;;;;;5085692;28;20967;-48
2022/06/17 00:30:31;;;;;;;7.20;5.00;;;18.40;99.90;;;;;;5090816;28;20439;-47
2022/06/17 00:33:01;;;;;;;5.20;4.30;;;18.40;99.90;;;;;;5090938;28;20440;-47
2022/06/17 00:35:32;;;;;;;6.00;4.83;;;18.40;99.90;;;;;;5090960;28;20546;-47
2022/06/17 00:38:00;;;;;;;5.93;5.33;;;18.40;99.90;;;;;;5091276;28;20439;-48
2022/06/17 00:40:29;;;;;;;5.13;4.63;;;18.40;99.90;;;;;;5091106;28;20444;-47
2022/06/17 00:43:01;;;;;;;4.63;4.23;;;18.10;99.90;;;;;;5091307;28;20884;-47
2022/06/17 00:45:30;;;;;;;5.73;4.60;;;18.10;99.90;;;;;;5090949;28;20525;-47
2022/06/17 00:48:03;;;;;;;5.17;4.77;;;18.10;99.90;;;;;;5091123;28;20471;-49
2022/06/17 00:50:36;;;;;;;11.00;5.10;;;18.20;99.90;;;;;;5090421;28;21001;-47
2022/06/17 00:53:17;;;;;;;5.77;5.20;;;18.20;99.90;;;;;;5094924;28;20440;-47
2022/06/17 00:55:47;;;;;;;5.07;4.63;;;18.20;99.90;;;;;;5094811;28;20468;-52
2022/06/17 00:58:19;;;;;;;5.47;4.90;;;18.20;99.90;;;;;;5094777;28;20443;-50
2022/06/17 01:00:47;;;;;;;10.93;5.30;;;18.30;99.90;;;;;;5094428;28;20858;-51
2022/06/17 01:03:19;;;;;;;7.90;5.33;;;18.30;99.90;;;;;;5094319;28;20979;-47
2022/06/17 01:05:49;;;;;;;5.97;4.97;;;18.30;99.90;;;;;;5094326;28;20467;-47
2022/06/17 01:11:05;;;;;;;5.73;4.37;;;18.20;99.90;;;;;;5093241;28;20428;-47
2022/06/17 01:13:34;;;;;;;4.80;4.40;;;18.20;99.90;;;;;;5094451;28;20526;-47
2022/06/17 01:16:01;;;;;;;5.20;4.80;;;18.20;99.90;;;;;;5094461;28;20455;-50
2022/06/17 01:18:31;;;;;;;4.87;4.37;;;18.20;99.90;;;;;;5094070;28;20435;-47
2022/06/17 01:21:06;;;;;;;6.93;4.53;;;18.30;99.90;;;;;;5093582;28;20475;-47
2022/06/17 01:23:35;;;;;;;5.23;4.60;;;18.30;99.90;;;;;;5094088;28;20474;-46
2022/06/17 01:26:02;;;;;;;4.80;4.40;;;18.30;99.90;;;;;;5093987;28;20455;-48
2022/06/17 01:28:29;;;;;;;5.70;5.10;;;18.30;99.90;;;;;;5094128;28;20472;-47
2022/06/17 01:30:59;;;;;;;6.03;5.33;;;18.10;99.90;;;;;;5093762;28;20471;-51
2022/06/17 01:33:29;;;;;;;6.07;5.50;;;18.00;99.90;;;;;;5093801;28;20522;-47
2022/06/17 01:35:59;;;;;;;4.97;4.43;;;17.80;99.90;;;;;;5093972;28;20495;-47
2022/06/17 01:38:28;;;;;;;6.40;5.60;;;17.90;99.90;;;;;;5093968;28;20475;-51
2022/06/17 01:40:59;;;;;;;6.73;5.20;;;18.00;99.90;;;;;;5093671;28;20440;-47
2022/06/17 01:43:32;;;;;;;5.77;5.27;;;18.10;99.90;;;;;;5094190;28;20558;-47
2022/06/17 01:46:04;;;;;;;6.10;5.40;;;18.20;99.90;;;;;;5093789;28;20528;-53
2022/06/17 01:48:37;;;;;;;8.60;5.17;;;18.20;99.90;;;;;;5093774;28;20500;-47
2022/06/17 01:51:07;;;;;;;6.67;5.50;;;18.00;99.90;;;;;;5093875;28;20475;-47
2022/06/17 01:53:40;;;;;;;5.07;4.57;;;18.00;99.90;;;;;;5093292;28;20467;-47
2022/06/17 01:56:13;;;;;;;5.30;4.70;;;18.00;99.90;;;;;;5093405;28;20463;-48
2022/06/17 01:58:44;;;;;;;6.90;5.20;;;18.00;99.90;;;;;;5093291;28;20435;-49
2022/06/17 02:01:12;;;;;;;4.87;4.40;;;18.10;99.90;;;;;;5093613;28;20492;-47
2022/06/17 02:03:43;;;;;;;5.93;4.80;;;18.10;99.90;;;;;;5092824;28;20841;-47
2022/06/17 02:06:14;;;;;;;6.47;4.90;;;18.10;99.90;;;;;;5152728;22;20518;-51
2022/06/17 02:08:41;;;;;;;5.27;4.47;;;18.10;99.90;;;;;;5092617;28;20514;-48
2022/06/17 02:11:10;;;;;;;4.87;4.00;;;18.10;99.90;;;;;;5093405;28;20524;-51
2022/06/17 02:13:38;;;;;;;5.27;4.77;;;18.10;99.90;;;;;;5093441;28;20506;-48
2022/06/17 02:16:07;;;;;;;6.20;5.57;;;18.00;99.90;;;;;;5093367;28;20550;-51
2022/06/17 02:18:34;;;;;;;9.27;5.13;;;17.90;99.90;;;;;;5093029;28;20498;-48
2022/06/17 02:21:07;;;;;;;5.70;5.20;;;17.90;99.90;;;;;;5093211;28;20546;-48
2022/06/17 02:23:34;;;;;;;5.40;4.90;;;18.00;99.90;;;;;;5092864;28;20518;-51
2022/06/17 02:26:04;;;;;;;6.23;4.67;;;18.00;99.90;;;;;;5093142;28;20594;-50
2022/06/17 02:28:35;;;;;;;5.77;5.13;;;18.10;99.90;;;;;;5092799;28;20704;-49
2022/06/17 02:31:03;;;;;;;5.20;4.70;;;18.10;99.90;;;;;;5092533;28;20444;-51
2022/06/17 02:33:31;;;;;;;5.90;5.40;;;18.10;99.90;;;;;;5092501;28;20556;-51
2022/06/17 02:36:00;;;;;;;5.47;5.00;;;18.10;99.90;;;;;;5092647;28;20459;-50
2022/06/17 02:38:31;;;;;;;7.13;5.57;;;18.00;99.90;;;;;;5092534;28;20443;-49
2022/06/17 02:41:05;;;;;;;7.53;5.10;;;18.00;99.90;;;;;;5092493;28;20475;-49
2022/06/17 02:43:36;;;;;;;6.63;4.97;;;17.80;99.90;;;;;;5093096;28;20840;-48
2022/06/17 02:46:07;;;;;;;6.77;5.17;;;17.80;99.90;;;;;;5092276;28;20520;-49
2022/06/17 02:48:43;;;;;;;8.03;5.10;;;17.80;99.90;;;;;;5092287;28;20527;-48
2022/06/17 02:51:13;;;;;;;6.00;4.93;;;17.80;99.90;;;;;;5092635;28;20435;-48
2022/06/17 02:53:42;;;;;;;5.80;5.30;;;17.80;99.90;;;;;;5091996;28;20803;-48
2022/06/17 02:56:14;;;;;;;6.97;5.47;;;17.80;99.90;;;;;;5092205;28;21014;-48
2022/06/17 02:58:51;;;;;;;5.80;5.30;;;17.80;99.90;;;;;;5092173;28;20805;-52
2022/06/17 03:01:22;;;;;;;7.03;5.70;;;17.80;99.90;;;;;;5092427;28;20812;-48
2022/06/17 03:03:50;;;;;;;8.23;5.30;;;17.80;99.90;;;;;;5092099;28;20471;-48
2022/06/17 03:06:21;;;;;;;6.03;5.20;;;17.80;99.90;;;;;;5092263;28;20472;-48
2022/06/17 03:08:52;;;;;;;6.10;5.50;;;17.70;99.90;;;;;;5091927;28;20890;-48
2022/06/17 03:11:20;;;;;;;5.60;5.03;;;17.70;99.90;;;;;;5092396;28;20472;-50
2022/06/17 03:13:51;;;;;;;7.10;5.90;;;17.80;99.90;;;;;;5091773;28;20435;-49
2022/06/17 03:16:19;;;;;;;5.87;5.27;;;17.80;99.90;;;;;;5091395;28;20897;-51
2022/06/17 03:18:48;;;;;;;5.20;4.70;;;17.80;99.90;;;;;;5092030;28;20467;-46
2022/06/17 03:21:20;;;;;;;5.10;4.70;;;17.80;99.90;;;;;;5091973;28;20556;-48
2022/06/17 03:23:53;;;;;;;5.70;4.83;;;17.90;99.90;;;;;;5091831;28;20502;-50
2022/06/17 03:26:25;;;;;;;10.57;6.57;;;17.80;99.90;;;;;;5091871;28;20491;-48
2022/06/17 03:28:55;;;;;;;3.20;2.73;;;17.80;99.90;;;;;;5091801;28;20477;-49
2022/06/17 03:31:31;;;;;;;5.80;5.20;;;17.70;99.90;;;;;;5091451;28;20471;-48
2022/06/17 03:34:02;;;;;;;6.00;5.00;;;17.80;99.90;;;;;;5091562;28;20486;-49
2022/06/17 03:36:33;;;;;;;6.63;4.67;;;17.80;99.90;;;;;;5092124;28;20491;-51
2022/06/17 03:39:02;;;;;;;6.77;5.20;;;17.80;99.90;;;;;;5091604;28;20573;-48
2022/06/17 03:41:34;;;;;;;5.63;5.10;;;17.80;99.90;;;;;;5091714;28;20530;-49
2022/06/17 03:44:06;;;;;;;5.80;5.30;;;17.80;99.90;;;;;;5091266;28;20558;-49
2022/06/17 03:46:38;;;;;;;5.63;5.13;;;17.70;99.90;;;;;;5091842;28;20522;-49
2022/06/17 03:49:08;;;;;;;6.43;5.50;;;17.70;99.90;;;;;;5090924;28;20444;-49
2022/06/17 03:51:37;;;;;;;9.23;4.90;;;17.80;99.90;;;;;;5091880;28;20490;-51
2022/06/17 03:54:05;;;;;;;5.67;5.17;;;17.80;99.90;;;;;;5091054;28;20435;-48
2022/06/17 03:56:35;;;;;;;5.23;4.83;;;17.70;99.90;;;;;;5091346;28;20463;-49
2022/06/17 03:59:07;;;;;;;5.50;5.10;;;17.70;99.90;;;;;;5091235;28;20489;-48
2022/06/17 04:01:40;;;;;;;5.30;4.90;;;17.70;99.90;;;;;;5091361;28;20534;-49
2022/06/17 04:04:20;;;;;;;5.70;5.07;;;17.70;99.90;;;;;;5091461;28;20564;-48
2022/06/17 04:06:50;;;;;;;6.93;6.23;;;17.80;99.90;;;;;;5091447;28;20499;-48
2022/06/17 04:09:20;;;;;;;5.80;5.30;;;17.70;99.90;;;;;;5091609;28;20471;-49
2022/06/17 04:11:49;;;;;;;6.40;5.10;;;17.60;99.90;;;;;;5091561;28;20522;-48
2022/06/17 04:14:21;;;;;;;9.30;5.33;;;17.70;99.90;;;;;;5091319;28;20792;-49
2022/06/17 04:16:54;;;;;;;5.40;4.90;;;17.70;99.90;;;;;;5091458;28;20463;-48
2022/06/17 04:19:25;;;;;;;6.07;5.57;;;17.80;99.90;;;;;;5091283;28;20463;-48
2022/06/17 04:21:53;;;;;;;5.83;5.20;;;17.70;99.90;;;;;;5091283;28;20894;-48
2022/06/17 04:24:24;;;;;;;6.00;5.50;;;17.70;99.90;;;;;;5091076;28;20475;-51
2022/06/17 04:26:56;;;;;;;6.43;5.83;;;17.70;99.90;;;;;;5093363;28;20465;-49
2022/06/17 04:29:32;;;;;;;6.97;6.03;;;17.70;99.90;;;;;;5094986;28;20530;-52
2022/06/17 04:32:03;;;;;;;7.77;7.07;;;17.70;99.90;;;;;;5095108;28;20478;-49
2022/06/17 04:34:30;;;;;;;7.07;6.37;;;17.60;99.90;;;;;;5095180;28;20439;-48
2022/06/17 04:37:03;;;;;;;8.20;7.40;;;17.30;99.90;;;;;;5095140;28;20517;-48
2022/06/17 04:39:33;;;;;;;6.53;5.93;;;17.00;99.90;;;;;;5094778;28;20443;-48
2022/06/17 04:42:03;;;;;;;6.60;6.10;;;16.90;99.90;;;;;;5094886;28;20439;-49
2022/06/17 04:44:31;;;;;;;6.30;5.70;;;16.70;99.90;;;;;;5094864;28;20518;-53
2022/06/17 04:47:04;;;;;;;8.60;6.77;;;16.70;99.90;;;;;;5094963;28;20491;-51
2022/06/17 04:49:34;;;;;;;6.73;5.83;;;16.70;99.90;;;;;;5094688;28;20471;-48
2022/06/17 04:52:06;;;;;;;7.97;6.03;;;16.80;99.90;;;;;;5095346;28;20443;-48
2022/06/17 04:54:34;;;;;;;6.60;5.73;;;16.80;99.90;;;;;;5094289;28;20866;-48
2022/06/17 04:57:04;;;;;;;6.57;6.07;;;16.80;99.90;;;;;;5094872;28;20877;-49
2022/06/17 04:59:37;;;;;;;7.13;6.27;;;16.90;99.90;;;;;;5094359;28;20864;-49
2022/06/17 05:02:06;;;;;;;7.83;6.40;;;17.00;99.90;;;;;;5095028;28;20501;-48
2022/06/17 05:04:34;;;;;;;6.87;6.10;;;17.10;99.90;;;;;;5094505;28;21079;-48
2022/06/17 05:07:00;;;;;;;11.53;5.80;;;17.20;99.90;;;;;;5094357;28;20545;-48
2022/06/17 05:09:33;;;;;;;7.50;6.33;;;17.20;99.90;;;;;;5094214;28;20435;-50
2022/06/17 05:12:04;;;;;;;7.13;5.70;;;17.20;99.90;;;;;;5094275;28;20936;-49
2022/06/17 05:14:41;;;;;;;6.83;6.13;;;17.20;99.90;;;;;;5094758;28;20852;-47
2022/06/17 05:17:08;;;;;;;7.00;6.33;;;17.30;99.90;;;;;;5094397;28;20954;-46
2022/06/17 05:19:35;;;;;;;6.60;6.10;;;17.30;99.90;;;;;;5094015;28;20483;-46
2022/06/17 05:22:05;;;;;;;6.70;6.10;;;17.40;99.90;;;;;;5094251;28;20523;-47
2022/06/17 05:24:32;;;;;;;7.93;7.10;;;17.40;99.90;;;;;;5093913;28;20735;-46
2022/06/17 05:27:00;;;;;;;6.80;6.10;;;17.50;99.90;;;;;;5094377;28;20506;-46
2022/06/17 05:29:26;;;;;;;9.93;5.97;;;17.50;99.90;;;;;;5093970;28;20567;-49
2022/06/17 05:31:55;;;;;;;7.30;6.60;;;17.50;99.90;;;;;;5093589;28;20478;-46
2022/06/17 05:34:22;;;;;;;6.80;6.27;;;17.50;99.90;;;;;;5094240;28;20448;-46
2022/06/17 05:36:49;;;;;;;9.10;6.80;;;17.50;99.90;;;;;;5094168;28;20471;-48
2022/06/17 05:39:16;;;;;;;7.20;6.60;;;17.30;99.90;;;;;;5092825;28;20513;-47
2022/06/17 05:41:43;;;;;;;9.63;7.20;;;17.30;99.90;;;;;;5093746;28;20439;-46
2022/06/17 05:44:10;;;;;;;6.40;5.80;;;17.20;99.90;;;;;;5093769;28;20565;-46
2022/06/17 05:46:37;;;;;;;6.87;5.40;;;17.10;99.90;;;;;;5093975;28;20547;-45
2022/06/17 05:49:05;;;;;;;6.90;6.20;;;17.20;99.90;;;;;;5093261;28;20475;-49
2022/06/17 05:51:32;;;;;;;7.10;6.17;;;17.20;99.90;;;;;;5093774;28;20478;-46
2022/06/17 05:53:59;;;;;;;7.20;6.60;;;17.30;99.90;;;;;;5093280;28;20435;-44
2022/06/17 05:56:26;;;;;;;6.43;5.90;;;17.30;99.90;;;;;;5093620;28;20498;-49
2022/06/17 05:58:53;;;;;;;7.07;6.47;;;17.30;99.90;;;;;;5093280;28;20447;-47
2022/06/17 06:01:20;;;;;;;6.70;6.10;;;17.40;99.90;;;;;;5093377;28;20932;-46
2022/06/17 06:03:47;;;;;;;7.43;6.70;;;17.50;99.90;;;;;;5093459;28;20475;-46
2022/06/17 06:06:15;;;;;;;7.53;5.80;;;18.10;99.90;;;;;;5093060;28;20554;-45
2022/06/17 06:08:42;;;;;;;6.67;6.07;;;19.00;99.90;;;;;;5092897;28;20501;-46
2022/06/17 06:11:09;;;;;;;6.47;5.87;;;20.00;99.90;;;;;;5093087;28;20471;-49
2022/06/17 06:13:36;;;;;;;6.67;5.87;;;21.00;99.90;;;;;;5093315;28;20475;-46
2022/06/17 06:16:04;;;;;;;7.60;6.63;;;21.90;99.90;;;;;;5092945;28;20467;-49
2022/06/17 06:18:33;;;;;;;6.80;5.00;;;22.70;99.90;;;;;;5092964;28;20502;-46
2022/06/17 06:21:04;;;;;;;8.90;5.50;;;23.10;99.90;;;;;;5093210;28;20475;-51
2022/06/17 06:23:33;;;;;;;6.03;5.43;;;23.20;99.90;;;;;;5093104;28;20475;-46
2022/06/17 06:26:00;;;;;;;6.73;6.03;;;23.10;99.90;;;;;;5093102;28;20555;-44
2022/06/17 06:28:29;;;;;;;6.17;5.47;;;23.00;99.90;;;;;;5092891;28;20439;-47
2022/06/17 06:30:59;;;;;;;6.10;5.60;;;22.90;99.90;;;;;;5092635;28;20501;-46
2022/06/17 06:33:26;;;;;;;6.40;5.70;;;22.70;99.90;;;;;;5092626;28;20467;-46
2022/06/17 06:35:52;;;;;;;9.53;5.70;;;22.30;99.90;;;;;;5092728;28;21057;-48
2022/06/17 06:38:20;;;;;;;7.30;6.60;;;22.10;99.90;;;;;;5092838;28;20475;-47
2022/06/17 06:40:48;;;;;;;5.70;5.20;;;21.80;99.90;;;;;;5092462;28;20859;-46
2022/06/17 06:43:19;;;;;;;7.03;5.40;;;21.90;99.90;;;;;;5092420;28;20520;-48
2022/06/17 06:45:48;;;;;;;5.80;5.20;;;21.80;99.90;;;;;;5092097;28;20913;-48
2022/06/17 06:48:18;;;;;;;10.43;5.07;;;21.30;99.90;;;;;;5092163;28;20197;-46
2022/06/17 06:50:45;;;;;;;21.67;7.93;;;21.20;99.90;;;;;;5092385;28;20519;-46
2022/06/17 06:53:12;;;;;;;6.17;5.57;;;21.10;99.90;;;;;;5092511;28;20471;-47
2022/06/17 06:55:40;;;;;;;6.50;5.83;;;21.10;99.90;;;;;;5092791;28;20455;-46
2022/06/17 06:58:12;;;;;;;5.87;5.37;;;21.00;99.90;;;;;;5092557;28;20522;-46
2022/06/17 07:00:42;;;;;;;8.90;5.77;;;20.90;99.90;;;;;;5092251;28;20471;-46
2022/06/17 07:03:08;;;;;;;8.13;5.40;;;20.90;99.90;;;;;;5092282;28;20443;-46
2022/06/17 07:05:38;;;;;;;29.77;8.30;;;20.50;99.90;;;;;;5092133;28;20548;-48
2022/06/17 07:08:05;;;;;;;6.30;5.70;;;20.50;99.90;;;;;;5092047;28;20447;-47
2022/06/17 07:10:35;;;;;;;6.30;5.70;;;20.40;99.90;;;;;;5091732;28;20474;-45
2022/06/17 07:13:03;;;;;;;7.73;6.00;;;20.00;99.90;;;;;;5092271;28;20497;-46
2022/06/17 07:15:31;;;;;;;6.37;5.77;;;19.90;99.90;;;;;;5092000;28;20525;-45
2022/06/17 07:18:01;;;;;;;6.93;5.03;;;19.80;99.90;;;;;;5092236;28;20443;-46
2022/06/17 07:20:36;;;;;;;8.40;5.70;;;20.00;99.90;;;;;;5091521;28;20811;-46
2022/06/17 07:23:04;;;;;;;5.83;5.23;;;20.10;99.90;;;;;;5092140;28;20471;-46
2022/06/17 07:25:30;;;;;;;18.47;15.67;;;20.40;99.90;;;;;;5091725;28;20524;-46
2022/06/17 07:27:57;;;;;;;8.50;7.57;;;20.60;99.90;;;;;;5091873;28;20482;-46
2022/06/17 07:30:25;;;;;;;7.93;6.27;;;20.90;99.90;;;;;;5091522;28;20478;-48
2022/06/17 07:32:53;;;;;;;8.00;6.17;;;21.00;99.90;;;;;;5091447;28;20475;-48
2022/06/17 07:35:21;;;;;;;6.43;5.70;;;21.00;99.90;;;;;;5091577;28;20558;-48
2022/06/17 07:40:33;;;;;;;8.33;5.60;;;20.90;99.90;;;;;;5091606;28;20830;-46
2022/06/17 07:43:00;;;;;;;7.03;5.73;;;21.10;99.90;;;;;;5091573;28;20522;-46
2022/06/17 07:45:30;;;;;;;5.70;5.00;;;21.30;99.90;;;;;;5091305;28;20916;-47
2022/06/17 07:47:59;;;;;;;11.93;5.67;;;21.50;99.90;;;;;;5091780;28;20622;-46
2022/06/17 07:50:31;;;;;;;6.83;5.63;;;21.40;99.90;;;;;;5090757;28;20447;-46
2022/06/17 07:52:58;;;;;;;6.00;5.43;;;21.50;99.90;;;;;;5091884;28;20443;-48
2022/06/17 07:55:25;;;;;;;6.47;5.83;;;21.60;99.90;;;;;;5090877;28;20546;-47
2022/06/17 07:57:53;;;;;;;9.13;6.17;;;21.70;99.90;;;;;;5091847;28;20443;-48
2022/06/17 08:00:27;;;;;;;8.30;7.50;;;21.70;99.90;;;;;;5090691;28;20496;-51
2022/06/17 08:02:54;;;;;;;9.47;8.63;;;21.90;99.90;;;;;;5091547;28;20439;-47
2022/06/17 08:05:22;;;;;;;6.33;5.73;;;22.10;99.90;;;;;;5150935;22;20506;-49
2022/06/17 08:07:49;;;;;;;5.93;5.33;;;21.80;99.90;;;;;;5090672;28;20451;-46
2022/06/17 08:10:18;;;;;;;9.33;5.70;;;21.50;99.90;;;;;;5090487;28;20812;-46
2022/06/17 08:12:45;;;;;;;5.90;5.40;;;21.70;99.90;;;;;;5091069;28;20489;-46
2022/06/17 08:15:13;;;;;;;6.83;5.73;;;21.60;99.90;;;;;;5090909;28;20497;-46
2022/06/17 08:17:41;;;;;;;6.23;5.67;;;21.50;99.90;;;;;;5090682;28;20443;-46
2022/06/17 08:20:15;;;;;;;8.20;6.47;;;21.70;99.90;;;;;;5090648;28;20469;-46
2022/06/17 08:22:43;;;;;;;7.50;6.20;;;21.90;99.90;;;;;;5090563;28;20501;-47
2022/06/17 08:25:10;;;;;;;33.77;11.00;;;22.00;99.90;;;;;;5090293;28;20474;-46
2022/06/17 08:27:42;;;;;;;6.90;6.23;;;22.20;99.90;;;;;;5090731;28;20447;-46
2022/06/17 08:30:10;;;;;;;7.13;6.43;;;22.30;99.90;;;;;;5090555;28;20482;-46
2022/06/17 08:32:46;;;;;;;6.97;6.00;;;22.10;99.90;;;;;;5090079;28;20482;-46
2022/06/17 08:35:14;;;;;;;5.77;5.37;;;22.00;99.90;;;;;;5090400;28;20928;-46
2022/06/17 08:37:43;;;;;;;6.80;6.13;;;22.10;99.90;;;;;;5090219;28;21015;-46
2022/06/17 08:40:37;;;;;;;6.30;5.70;;;22.30;99.90;;;;;;5090235;28;20533;-49
2022/06/17 08:43:21;;;;;;;6.20;5.60;;;22.40;99.90;;;;;;5086999;28;20487;-46
2022/06/17 08:45:57;;;;;;;7.07;6.37;;;22.30;99.90;;;;;;5090132;28;20566;-46
2022/06/17 08:48:34;;;;;;;7.23;6.07;;;22.30;99.90;;;;;;5090167;28;20535;-46
2022/06/17 08:51:09;;;;;;;6.13;5.53;;;22.20;99.90;;;;;;5089949;28;20909;-46
2022/06/17 08:54:09;;;;;;;6.63;6.03;;;22.10;99.90;;;;;;5090103;28;20474;-46
2022/06/17 08:56:47;;;;;;;7.10;6.50;;;22.20;99.90;;;;;;5090125;28;20911;-46
2022/06/17 08:59:40;;;;;;;8.63;5.50;;;22.20;99.90;;;;;;5090139;28;20464;-47
2022/06/17 09:02:19;;;;;;;6.50;6.00;;;22.40;99.90;;;;;;5090303;28;20525;-46
2022/06/17 09:05:03;;;;;;;5.60;5.10;;;22.60;99.90;;;;;;5090527;28;20566;-46
2022/06/17 09:07:42;;;;;;;6.20;5.60;;;22.50;99.90;;;;;;5090256;28;20528;-47
2022/06/17 09:10:24;;;;;;;6.50;5.80;;;22.80;99.90;;;;;;5089960;28;20438;-47
2022/06/17 09:13:04;;;;;;;6.30;5.70;;;23.00;99.90;;;;;;5090671;28;20439;-48
2022/06/17 09:15:38;;;;;;;5.80;5.30;;;23.10;99.90;;;;;;5093898;28;20459;-46
2022/06/17 09:18:14;;;;;;;6.10;5.00;;;23.30;99.90;;;;;;5093844;28;20474;-46
2022/06/17 09:20:43;;;;;;;6.23;5.67;;;23.50;99.90;;;;;;5093202;28;20936;-46
2022/06/17 09:23:14;;;;;;;6.27;5.77;;;23.50;99.90;;;;;;5093768;28;20486;-46
2022/06/17 09:25:45;;;;;;;8.20;5.30;;;23.60;99.90;;;;;;5093183;28;20841;-49
2022/06/17 09:28:15;;;;;;;6.43;5.87;;;23.70;99.90;;;;;;5094249;28;20471;-46
2022/06/17 09:30:48;;;;;;;7.00;6.30;;;23.80;99.90;;;;;;5093882;28;20522;-47
2022/06/17 09:33:21;;;;;;;6.30;5.80;;;23.80;99.90;;;;;;5094013;28;21084;-46
2022/06/17 09:35:52;;;;;;;6.63;5.87;;;23.80;99.90;;;;;;5093657;28;20468;-51
2022/06/17 09:38:24;;;;;;;6.00;5.50;;;23.80;99.90;;;;;;5094137;28;20447;-48
2022/06/17 09:40:57;;;;;;;5.97;5.37;;;23.90;99.90;;;;;;5093642;28;20444;-47
2022/06/17 09:43:31;;;;;;;6.23;4.83;;;24.10;99.90;;;;;;5093941;28;20443;-47
2022/06/17 09:46:04;;;;;;;5.70;5.13;;;24.30;99.90;;;;;;5093660;28;20507;-46
2022/06/17 09:48:39;;;;;;;6.67;5.50;;;24.30;99.90;;;;;;5093618;28;20492;-47
2022/06/17 09:51:13;;;;;;;7.90;6.47;;;24.40;99.90;;;;;;5093770;28;20470;-46
2022/06/17 09:53:45;;;;;;;6.03;5.50;;;24.40;99.90;;;;;;5093365;28;20487;-46
2022/06/17 09:56:19;;;;;;;9.23;5.50;;;24.40;99.90;;;;;;5093707;28;20886;-46
2022/06/17 09:58:50;;;;;;;6.20;5.13;;;24.30;99.90;;;;;;5093368;28;20486;-49
2022/06/17 10:01:18;;;;;;;6.13;5.57;;;24.60;99.90;;;;;;5093527;28;20450;-50
2022/06/17 10:03:45;;;;;;;23.60;7.40;;;24.30;99.90;;;;;;5093168;28;20482;-46
2022/06/17 10:06:25;;;;;;;5.47;5.07;;;24.40;99.90;;;;;;5093364;28;20490;-50
2022/06/17 10:09:03;;;;;;;10.10;6.30;;;24.40;99.90;;;;;;5093097;28;20447;-49
2022/06/17 10:11:38;;;;;;;5.60;5.20;;;24.60;99.90;;;;;;5093212;28;20447;-46
2022/06/17 10:14:17;;;;;;;5.73;4.97;;;24.60;99.90;;;;;;5093189;28;20496;-46
2022/06/17 10:19:50;;;;;;;5.43;4.93;;;24.80;99.90;;;;;;5093009;28;20446;-46
2022/06/17 10:22:26;;;;;;;18.20;6.70;;;24.80;99.90;;;;;;5093076;28;20443;-47
2022/06/17 10:25:07;;;;;;;5.40;4.90;;;24.90;99.90;;;;;;5092816;28;20479;-46
2022/06/17 10:27:46;;;;;;;5.57;5.07;;;24.90;99.90;;;;;;5093042;28;20501;-46
2022/06/17 10:30:15;;;;;;;6.70;4.70;;;25.00;99.90;;;;;;5092707;28;20530;-51
2022/06/17 10:32:47;;;;;;;5.43;4.93;;;24.80;99.80;;;;;;5092815;28;20519;-47
2022/06/17 10:35:21;;;;;;;4.80;4.40;;;24.80;98.90;;;;;;5092896;28;20475;-46
2022/06/17 10:37:49;;;;;;;4.70;4.30;;;24.40;96.90;;;;;;5092584;28;20471;-47
2022/06/17 10:40:19;;;;;;;7.60;4.57;;;24.60;98.00;;;;;;5092332;28;20928;-50
2022/06/17 10:42:48;;;;;;;20.67;7.00;;;24.60;97.00;;;;;;5093041;28;20710;-46
2022/06/17 10:45:16;;;;;;;5.53;4.60;;;24.80;97.90;;;;;;5092324;28;21003;-45
2022/06/17 10:47:50;;;;;;;7.23;4.73;;;24.80;98.00;;;;;;5092395;28;20485;-47
2022/06/17 10:50:22;;;;;;;4.87;4.37;;;24.80;98.80;;;;;;5091593;28;20442;-46
2022/06/17 10:52:53;;;;;;;4.63;4.23;;;25.00;97.10;;;;;;5092696;28;20440;-46
2022/06/17 10:55:26;;;;;;;6.27;4.37;;;25.00;95.90;;;;;;5091910;28;20504;-46
2022/06/17 10:58:15;;;;;;;5.00;4.60;;;25.20;95.60;;;;;;5092757;28;20447;-49
2022/06/17 11:00:45;;;;;;;4.30;3.90;;;25.10;94.20;;;;;;5092469;28;20512;-46
2022/06/17 11:03:23;;;;;;;6.73;4.33;;;25.10;95.90;;;;;;5092611;28;20440;-47
2022/06/17 11:06:07;;;;;;;5.23;4.10;;;25.20;94.70;;;;;;5092127;28;20483;-46
2022/06/17 11:08:40;;;;;;;5.00;4.03;;;25.20;94.10;;;;;;5092506;28;20523;-46
2022/06/17 11:13:56;;;;;;;7.63;4.73;;;25.20;94.10;;;;;;5092491;28;20504;-49
2022/06/17 11:16:25;;;;;;;5.07;4.67;;;25.20;94.80;;;;;;5092124;28;20455;-46
2022/06/17 11:18:59;;;;;;;7.43;5.03;;;25.20;93.90;;;;;;5091879;28;20482;-46
2022/06/17 11:21:31;;;;;;;4.93;4.40;;;25.10;95.40;;;;;;5092239;28;20439;-46
2022/06/17 11:23:59;;;;;;;8.10;4.40;;;25.20;93.50;;;;;;5092033;28;20466;-46
2022/06/17 11:26:30;;;;;;;4.87;3.50;;;25.10;94.20;;;;;;5091773;28;20579;-50
2022/06/17 11:29:01;;;;;;;5.37;4.87;;;25.10;94.30;;;;;;5091844;28;20451;-49
2022/06/17 11:31:35;;;;;;;5.13;4.40;;;25.20;94.10;;;;;;5092023;28;20466;-46
2022/06/17 11:34:11;;;;;;;5.70;4.43;;;25.30;94.50;;;;;;5092072;28;20471;-46
2022/06/17 11:36:53;;;;;;;4.43;3.73;;;25.20;95.80;;;;;;5090313;28;20462;-46
2022/06/17 11:39:32;;;;;;;4.40;4.00;;;25.20;95.00;;;;;;5091213;28;20482;-50
2022/06/17 11:42:00;;;;;;;4.60;4.27;;;25.20;95.30;;;;;;5090971;28;20452;-46
2022/06/17 11:44:29;;;;;;;4.90;4.43;;;25.20;94.30;;;;;;5091432;28;20966;-46
2022/06/17 11:46:58;;;;;;;4.63;4.00;;;25.20;93.90;;;;;;5091466;28;20498;-46
2022/06/17 11:49:26;;;;;;;12.40;4.50;;;25.20;95.40;;;;;;5091055;28;20925;-46
2022/06/17 11:52:00;;;;;;;23.37;5.93;;;25.30;92.40;;;;;;5091737;28;20538;-46
2022/06/17 11:54:32;;;;;;;4.23;3.93;;;25.20;92.20;;;;;;5091501;28;20442;-46
2022/06/17 11:57:12;;;;;;;3.53;3.23;;;25.20;93.20;;;;;;5091761;28;20471;-47
2022/06/17 11:59:45;;;;;;;4.13;3.73;;;25.20;93.40;;;;;;5091239;28;20533;-48
2022/06/17 12:02:13;;;;;;;4.80;4.40;;;25.30;93.20;;;;;;5091706;28;20475;-46
2022/06/17 12:04:42;;;;;;;4.50;3.87;;;25.40;94.80;;;;;;5091191;28;20835;-46
2022/06/17 12:07:35;;;;;;;3.80;3.50;;;25.50;93.00;;;;;;5091108;28;20528;-47
2022/06/17 12:10:13;;;;;;;4.20;3.80;;;25.50;94.30;;;;;;5091077;28;20513;-47
2022/06/17 12:12:41;;;;;;;4.33;4.03;;;25.50;93.00;;;;;;5091675;28;20591;-46
2022/06/17 12:15:22;;;;;;;4.70;4.27;;;25.60;93.20;;;;;;5091410;28;20980;-47
2022/06/17 12:17:51;;;;;;;5.13;4.30;;;25.60;93.80;;;;;;5091356;28;20457;-46
2022/06/17 12:20:24;;;;;;;5.00;4.50;;;25.60;92.40;;;;;;5091238;28;20651;-47
2022/06/17 12:22:59;;;;;;;4.27;3.97;;;25.60;92.60;;;;;;5091378;28;20478;-47
2022/06/17 12:25:39;;;;;;;4.03;3.73;;;25.60;91.20;;;;;;5091151;28;20557;-50
2022/06/17 12:28:17;;;;;;;4.47;4.17;;;25.60;91.70;;;;;;5091644;28;20861;-46
2022/06/17 12:30:52;;;;;;;4.00;3.60;;;25.60;93.40;;;;;;5091603;28;20439;-47
2022/06/17 12:33:26;;;;;;;4.57;3.87;;;25.50;86.90;;;;;;5090950;28;20481;-50
2022/06/17 12:36:02;;;;;;;6.07;4.50;;;25.50;92.20;;;;;;5091365;28;20487;-48
2022/06/17 12:38:36;;;;;;;4.10;3.70;;;25.60;92.10;;;;;;5091029;28;20486;-46
2022/06/17 12:41:11;;;;;;;3.80;3.50;;;25.60;90.20;;;;;;5091194;28;20444;-46
2022/06/17 12:43:46;;;;;;;4.37;3.97;;;25.70;91.40;;;;;;5090984;28;20526;-46
2022/06/17 12:46:20;;;;;;;4.50;3.27;;;25.60;90.90;;;;;;5090796;28;21072;-46
2022/06/17 12:48:58;;;;;;;3.70;3.40;;;25.60;91.40;;;;;;5094573;28;20490;-51
2022/06/17 12:54:35;;;;;;;3.50;3.20;;;25.70;88.90;;;;;;5094359;28;20528;-48
2022/06/17 12:57:09;;;;;;;3.70;3.37;;;25.70;90.20;;;;;;5094875;28;20462;-47
2022/06/17 12:59:51;;;;;;;4.30;3.70;;;25.90;91.30;;;;;;5094669;28;20444;-46
2022/06/17 13:02:31;;;;;;;4.17;3.30;;;25.90;89.50;;;;;;5094736;28;21021;-46
2022/06/17 13:05:12;;;;;;;3.90;3.50;;;25.70;86.00;;;;;;5094616;28;20443;-46
2022/06/17 13:07:53;;;;;;;4.33;3.90;;;25.80;92.50;;;;;;5094576;28;20443;-47
2022/06/17 13:10:42;;;;;;;3.83;3.43;;;25.80;84.20;;;;;;5094607;28;20474;-47
2022/06/17 13:13:23;;;;;;;5.30;3.27;;;25.80;88.30;;;;;;5094622;28;20460;-49
2022/06/17 13:15:54;;;;;;;12.13;4.37;;;25.90;87.60;;;;;;5094238;28;20464;-46
2022/06/17 13:18:28;;;;;;;3.53;3.23;;;25.80;87.90;;;;;;5094246;28;20527;-51
2022/06/17 13:21:01;;;;;;;3.20;2.97;;;25.80;84.80;;;;;;5094482;28;20463;-46